Latest Weather Observations for Sydney Harbour

IDN60901

Issued at 11:31 pm EST Friday 31 July 2015 (issued every 10 minutes, with the page automatically refreshed every 10 minutes)

About weather observations | Map of Sydney area stations | Latest observations for Sydney area | Other Formats
Station Details ID: 066196 Name: WEDDING CAKE WEST Lat: -33.84 Lon: 151.26 Height: 6.0 m
Data from the previous 72 hours. | See also: Recent months for locations in New South Wales
Date/Time
EST
Tmp

°C
App
Tmp
°C
Dew
Point
°C
Rel
Hum
%
Delta-T

°C
Wind Press
QNH
hPa
Press
MSL
hPa
Rain
since
9 am
mm
Dir
 
Spd
km/h
Gust
km/h
Spd
kts
Gust
kts
31/11:30pm 13.7 - - - - W 11 15 6 8 - - -
31/11:00pm 14.5 - - - - NW 13 17 7 9 - - -
31/10:30pm 15.6 - - - - NNW 17 22 9 12 - - -
31/10:00pm 15.2 - - - - NNW 13 15 7 8 - - -
31/09:30pm 15.7 - - - - N 13 17 7 9 - - -
31/09:00pm 15.8 - - - - N 17 20 9 11 - - -
31/08:30pm 16.2 - - - - N 19 22 10 12 - - -
31/08:00pm 17.0 - - - - NE 22 26 12 14 - - -
31/07:30pm 17.1 - - - - NE 22 28 12 15 - - -
31/07:00pm 17.1 - - - - ENE 24 28 13 15 - - -
31/06:30pm 17.1 - - - - E 20 24 11 13 - - -
31/06:00pm 17.6 - - - - ENE 15 19 8 10 - - -
31/05:30pm 17.2 - - - - NNE 9 11 5 6 - - -
31/05:00pm 17.8 - - - - NNE 13 15 7 8 - - -
31/04:30pm 18.5 - - - - W 6 9 3 5 - - -
31/04:00pm 18.4 - - - - WSW 6 7 3 4 - - -
31/03:30pm 18.5 - - - - WSW 11 15 6 8 - - -
31/03:00pm 18.5 - - - - WSW 9 13 5 7 - - -
31/02:30pm 18.7 - - - - W 13 20 7 11 - - -
31/02:00pm 18.3 - - - - W 19 28 10 15 - - -
31/01:30pm 18.0 - - - - W 20 26 11 14 - - -
31/01:00pm 17.6 - - - - W 19 26 10 14 - - -
31/12:30pm 17.3 - - - - W 15 24 8 13 - - -
31/12:00pm 17.0 - - - - W 19 24 10 13 - - -
31/11:30am 16.8 - - - - W 22 28 12 15 - - -
31/11:00am 16.3 - - - - W 22 32 12 17 - - -
31/10:30am 15.7 - - - - WSW 22 28 12 15 - - -
31/10:00am 15.9 - - - - WSW 15 20 8 11 - - -
31/09:30am 15.5 - - - - SW 11 15 6 8 - - -
31/09:00am 15.0 - - - - WNW 17 22 9 12 - - -
31/08:30am 14.5 - - - - WNW 7 15 4 8 - - -
31/08:00am 13.9 - - - - NW 15 22 8 12 - - -
31/07:30am 14.3 - - - - NW 19 22 10 12 - - -
31/07:00am 13.6 - - - - SW 7 11 4 6 - - -
31/06:30am 13.6 - - - - SW 7 9 4 5 - - -
31/06:00am 14.2 - - - - CALM 0 0 0 0 - - -
31/05:30am 14.2 - - - - E 4 11 2 6 - - -
31/05:00am 13.6 - - - - NNE 7 11 4 6 - - -
31/04:30am 13.4 - - - - NNW 11 15 6 8 - - -
31/04:00am 14.0 - - - - WNW 9 11 5 6 - - -
31/03:30am 14.0 - - - - NW 9 13 5 7 - - -
31/03:00am 14.0 - - - - NW 6 11 3 6 - - -
31/02:30am 13.4 - - - - CALM 0 6 0 3 - - -
31/02:00am 14.0 - - - - CALM 0 0 0 0 - - -
31/01:30am 14.4 - - - - NW 7 9 4 5 - - -
31/01:00am 14.6 - - - - WNW 9 13 5 7 - - -
31/12:30am 14.8 - - - - NW 9 15 5 8 - - -
31/12:00am 14.8 - - - - NNW 11 15 6 8 - - -
 
Date/Time
EST
Tmp

°C
App
Tmp
°C
Dew
Point
°C
Rel
Hum
%
Delta-T

°C
Wind Press
QNH
hPa
Press
MSL
hPa
Rain
since
9 am
mm
Dir
 
Spd
km/h
Gust
km/h
Spd
kts
Gust
kts
30/11:30pm 15.1 - - - - N 11 15 6 8 - - -
30/11:00pm 15.1 - - - - N 17 22 9 12 - - -
30/10:30pm 15.2 - - - - NNW 11 17 6 9 - - -
30/10:00pm 15.4 - - - - NNW 20 30 11 16 - - -
30/09:30pm 15.6 - - - - NNW 11 19 6 10 - - -
30/09:00pm 16.0 - - - - NNW 11 17 6 9 - - -
30/08:30pm 16.3 - - - - NNW 15 24 8 13 - - -
30/08:00pm 16.7 - - - - NNW 22 33 12 18 - - -
30/07:30pm 17.0 - - - - NNW 22 33 12 18 - - -
30/07:00pm 17.3 - - - - NNW 24 35 13 19 - - -
30/06:30pm 17.5 - - - - NNW 22 35 12 19 - - -
30/06:00pm 17.6 - - - - NNW 22 32 12 17 - - -
30/05:30pm 17.9 - - - - NNW 24 32 13 17 - - -
30/05:00pm 18.4 - - - - NNW 22 30 12 16 - - -
30/04:30pm 18.7 - - - - NNW 19 28 10 15 - - -
30/04:00pm 18.9 - - - - NNW 15 20 8 11 - - -
30/03:30pm 19.0 - - - - NNW 19 24 10 13 - - -
30/03:00pm 19.1 - - - - N 22 32 12 17 - - -
30/02:30pm 18.8 - - - - NNW 24 33 13 18 - - -
30/02:00pm 18.2 - - - - N 20 28 11 15 - - -
30/01:30pm 17.8 - - - - NNW 13 24 7 13 - - -
30/01:00pm 17.4 - - - - NNW 20 33 11 18 - - -
30/12:30pm 17.1 - - - - NW 19 35 10 19 - - -
30/12:00pm 16.7 - - - - NNW 17 28 9 15 - - -
30/11:30am 16.4 - - - - NNW 17 28 9 15 - - -
30/11:00am 15.5 - - - - N 17 24 9 13 - - -
30/10:30am 14.7 - - - - N 24 30 13 16 - - -
30/10:00am 14.4 - - - - NNW 17 30 9 16 - - -
30/09:30am 14.1 - - - - NNW 11 22 6 12 - - -
30/09:00am 12.7 - - - - NNW 11 17 6 9 - - -
30/08:30am 12.5 - - - - NNW 15 24 8 13 - - -
30/08:00am 12.3 - - - - NNW 24 30 13 16 - - -
30/07:30am 12.1 - - - - NNW 17 24 9 13 - - -
30/07:00am 11.5 - - - - NW 20 28 11 15 - - -
30/06:30am 11.4 - - - - NNW 7 13 4 7 - - -
30/06:00am 11.2 - - - - W 6 19 3 10 - - -
30/05:30am 11.2 - - - - WSW 9 13 5 7 - - -
30/05:00am 11.1 - - - - SW 9 11 5 6 - - -
30/04:30am 11.2 - - - - SW 9 13 5 7 - - -
30/04:00am 11.3 - - - - W 9 13 5 7 - - -
30/03:30am 11.4 - - - - NW 9 13 5 7 - - -
30/03:00am 11.4 - - - - NW 13 17 7 9 - - -
30/02:30am 12.1 - - - - W 6 7 3 4 - - -
30/02:00am 11.9 - - - - W 15 19 8 10 - - -
30/01:30am 11.8 - - - - WSW 9 17 5 9 - - -
30/01:00am 12.2 - - - - WSW 9 11 5 6 - - -
30/12:30am 12.2 - - - - WSW 6 7 3 4 - - -
30/12:00am 12.3 - - - - WSW 7 11 4 6 - - -
 
Date/Time
EST
Tmp

°C
App
Tmp
°C
Dew
Point
°C
Rel
Hum
%
Delta-T

°C
Wind Press
QNH
hPa
Press
MSL
hPa
Rain
since
9 am
mm
Dir
 
Spd
km/h
Gust
km/h
Spd
kts
Gust
kts
29/11:30pm 12.4 - - - - N 6 9 3 5 - - -
29/11:00pm 12.5 - - - - WNW 13 17 7 9 - - -
29/10:30pm 13.6 - - - - NNW 13 15 7 8 - - -
29/10:00pm 14.1 - - - - NNW 13 15 7 8 - - -
29/09:30pm 14.0 - - - - N 11 13 6 7 - - -
29/09:00pm 13.9 - - - - N 11 13 6 7 - - -
29/08:30pm 14.1 - - - - N 11 13 6 7 - - -
29/08:00pm 14.2 - - - - N 9 11 5 6 - - -
29/07:30pm 14.4 - - - - N 11 13 6 7 - - -
29/07:00pm 15.3 - - - - NE 11 13 6 7 - - -
29/06:30pm 15.3 - - - - ENE 11 15 6 8 - - -
29/06:00pm 15.1 - - - - ENE 9 13 5 7 - - -
29/05:30pm 15.0 - - - - E 9 13 5 7 - - -
29/05:00pm 15.1 - - - - E 9 13 5 7 - - -
29/04:30pm 15.2 - - - - E 11 15 6 8 - - -
29/04:00pm 16.1 - - - - E 11 19 6 10 - - -
29/03:30pm 16.4 - - - - ESE 11 15 6 8 - - -
29/03:00pm 16.4 - - - - SE 13 17 7 9 - - -
29/02:30pm 15.5 - - - - SE 15 19 8 10 - - -
29/02:00pm 15.5 - - - - SE 17 19 9 10 - - -
29/01:30pm 15.6 - - - - SSE 17 24 9 13 - - -
29/01:00pm 16.6 - - - - CALM 0 0 0 0 - - -
29/12:30pm 15.1 - - - - WSW 6 7 3 4 - - -
29/12:00pm 14.2 - - - - WSW 11 15 6 8 - - -
29/11:30am 13.6 - - - - WSW 13 15 7 8 - - -
29/11:00am 12.8 - - - - WSW 15 20 8 11 - - -
29/10:30am 12.6 - - - - WSW 9 15 5 8 - - -
29/10:00am 12.2 - - - - WNW 7 19 4 10 - - -
29/09:30am 11.3 - - - - WSW 17 20 9 11 - - -
29/09:00am 9.8 - - - - WSW 13 17 7 9 - - -
29/08:30am 9.4 - - - - WSW 13 19 7 10 - - -
29/08:00am 9.3 - - - - WSW 9 13 5 7 - - -
29/07:30am 9.3 - - - - W 9 11 5 6 - - -
29/07:00am 9.4 - - - - W 13 19 7 10 - - -
29/06:30am 9.2 - - - - W 15 19 8 10 - - -
29/06:00am 9.6 - - - - W 11 15 6 8 - - -
29/05:30am 9.3 - - - - WSW 17 24 9 13 - - -
29/05:00am 9.7 - - - - W 13 17 7 9 - - -
29/04:30am 10.3 - - - - W 13 17 7 9 - - -
29/04:00am 9.8 - - - - WSW 17 19 9 10 - - -
29/03:30am 10.0 - - - - WSW 20 22 11 12 - - -
29/03:00am 10.2 - - - - WSW 19 24 10 13 - - -
29/02:30am 10.5 - - - - WSW 20 28 11 15 - - -
29/02:00am 10.7 - - - - WSW 17 24 9 13 - - -
29/01:30am 10.9 - - - - W 13 19 7 10 - - -
29/01:00am 10.9 - - - - W 20 24 11 13 - - -
29/12:30am 11.1 - - - - WSW 15 19 8 10 - - -
29/12:00am 11.4 - - - - WSW 19 24 10 13 - - -

Latest Capital City Observations: Canberra | Sydney | Melbourne | Brisbane | Adelaide | Perth | Hobart | Darwin

Other Formats:

Comma delimited format used in spreadsheet applications
http://www.bom.gov.au/fwo/IDN60901/IDN60901.95766.axf

JavaScript Object Notation format (JSON) in row-major order
http://www.bom.gov.au/fwo/IDN60901/IDN60901.95766.json